Time;durP1;ratioP1;P1;durP2;ratioP2;P2;SDS_P1;SDS_P2;PMS_P1;PMS_P2;Temp;Humidity;BMP_temperature;BMP_pressure;BME280_temperature;BME280_humidity;BME280_pressure;Samples;Min_cycle;Max_cycle;Signal;HPM_P1;HPM_P2
2021/11/09 00:01:58;;;;;;;0.30;0.30;;;3.70;99.00;;;;;;5015280;28;20171;-68
2021/11/09 00:04:29;;;;;;;0.35;0.35;;;3.60;99.20;;;;;;5015399;28;20438;-68
2021/11/09 00:07:00;;;;;;;0.30;0.30;;;3.70;99.40;;;;;;5015128;28;20207;-68
2021/11/09 00:09:29;;;;;;;0.30;0.30;;;3.70;99.30;;;;;;5015540;28;20262;-68
2021/11/09 00:11:55;;;;;;;0.40;0.40;;;3.70;99.20;;;;;;5015207;28;20167;-67
2021/11/09 00:14:20;;;;;;;0.33;0.33;;;3.40;99.40;;;;;;5015001;28;20199;-68
2021/11/09 00:16:46;;;;;;;0.40;0.40;;;3.50;99.60;;;;;;5014870;28;20221;-69
2021/11/09 00:19:12;;;;;;;0.40;0.40;;;3.60;99.60;;;;;;5015025;28;20183;-69
2021/11/09 00:21:37;;;;;;;0.30;0.30;;;3.50;99.50;;;;;;5015006;28;20625;-67
2021/11/09 00:24:04;;;;;;;0.40;0.40;;;3.50;99.60;;;;;;5014957;28;20202;-67
2021/11/09 00:26:30;;;;;;;0.40;0.40;;;3.60;99.60;;;;;;5014833;28;20241;-68
2021/11/09 00:28:55;;;;;;;0.30;0.30;;;3.70;99.30;;;;;;5015024;28;20230;-68
2021/11/09 00:31:22;;;;;;;0.40;0.40;;;3.70;99.20;;;;;;5014955;28;20168;-69
2021/11/09 00:33:47;;;;;;;0.30;0.30;;;3.70;99.10;;;;;;5014669;28;20421;-68
2021/11/09 00:36:13;;;;;;;0.30;0.30;;;3.70;99.20;;;;;;5014589;28;20546;-68
2021/11/09 00:38:40;;;;;;;0.32;0.32;;;3.70;99.10;;;;;;5014855;28;20179;-67
2021/11/09 00:41:06;;;;;;;0.40;0.40;;;3.60;99.20;;;;;;5014064;28;20206;-68
2021/11/09 00:43:33;;;;;;;0.40;0.40;;;3.50;99.30;;;;;;5014652;28;20210;-69
2021/11/09 00:45:58;;;;;;;0.98;0.80;;;3.50;99.30;;;;;;5014262;28;20454;-67
2021/11/09 00:48:24;;;;;;;0.40;0.40;;;3.60;99.30;;;;;;5014700;28;20259;-69
2021/11/09 00:50:53;;;;;;;0.40;0.40;;;3.60;99.20;;;;;;5014305;28;20191;-68
2021/11/09 00:53:19;;;;;;;0.30;0.30;;;3.60;99.10;;;;;;5014420;28;20668;-69
2021/11/09 00:55:46;;;;;;;0.40;0.40;;;3.40;99.20;;;;;;5014162;28;20186;-69
2021/11/09 00:58:13;;;;;;;0.40;0.40;;;3.50;99.30;;;;;;5014489;28;20170;-68
2021/11/09 01:00:39;;;;;;;0.30;0.30;;;3.50;99.20;;;;;;5014505;28;20541;-69
2021/11/09 01:03:07;;;;;;;0.52;0.52;;;3.60;99.10;;;;;;5012865;28;20200;-69
2021/11/09 01:05:34;;;;;;;0.40;0.40;;;3.60;98.90;;;;;;5014134;28;20257;-69
2021/11/09 01:08:09;;;;;;;0.40;0.40;;;3.80;98.70;;;;;;5014288;28;20618;-68
2021/11/09 01:10:39;;;;;;;0.30;0.30;;;3.90;98.40;;;;;;5014331;28;20203;-68
2021/11/09 01:13:05;;;;;;;0.30;0.30;;;4.00;98.10;;;;;;5013995;28;20189;-67
2021/11/09 01:15:32;;;;;;;0.35;0.35;;;3.80;98.00;;;;;;5014186;28;20175;-68
2021/11/09 01:18:03;;;;;;;0.40;0.40;;;3.80;98.30;;;;;;5014224;28;20174;-68
2021/11/09 01:20:29;;;;;;;0.35;0.35;;;3.70;98.40;;;;;;5014106;28;20183;-68
2021/11/09 01:22:58;;;;;;;0.30;0.30;;;3.80;98.50;;;;;;5014057;28;20174;-68
2021/11/09 01:25:28;;;;;;;0.30;0.30;;;3.70;98.50;;;;;;5013842;28;20233;-67
2021/11/09 01:27:54;;;;;;;0.30;0.30;;;3.70;98.80;;;;;;5013872;28;20599;-68
2021/11/09 01:30:20;;;;;;;0.30;0.30;;;3.40;98.60;;;;;;5012647;28;20190;-68
2021/11/09 01:32:51;;;;;;;0.30;0.30;;;3.40;98.70;;;;;;5013868;28;20167;-67
2021/11/09 01:35:17;;;;;;;0.75;0.75;;;3.50;98.70;;;;;;5013745;28;20242;-67
2021/11/09 01:37:43;;;;;;;0.40;0.40;;;3.50;98.70;;;;;;5013861;28;20746;-67
2021/11/09 01:40:11;;;;;;;0.30;0.30;;;3.60;98.50;;;;;;5013960;28;20191;-68
2021/11/09 01:42:37;;;;;;;0.35;0.35;;;3.60;98.40;;;;;;5013839;28;20176;-67
2021/11/09 01:45:07;;;;;;;0.30;0.30;;;3.70;98.30;;;;;;5012292;28;20182;-67
2021/11/09 01:47:33;;;;;;;0.30;0.30;;;3.50;98.30;;;;;;5013951;28;20592;-67
2021/11/09 01:49:59;;;;;;;0.30;0.30;;;3.60;98.30;;;;;;5013603;28;20197;-68
2021/11/09 01:52:26;;;;;;;0.40;0.40;;;3.50;98.30;;;;;;5017187;28;20179;-68
2021/11/09 01:54:52;;;;;;;0.30;0.30;;;3.50;98.20;;;;;;5017562;28;20541;-68
2021/11/09 01:57:18;;;;;;;0.30;0.30;;;3.50;98.20;;;;;;5017654;28;20181;-66
2021/11/09 01:59:44;;;;;;;0.30;0.30;;;3.40;98.20;;;;;;5017664;28;20443;-69
2021/11/09 02:02:10;;;;;;;0.40;0.40;;;3.50;98.40;;;;;;5016427;28;20513;-68
2021/11/09 02:04:35;;;;;;;0.30;0.30;;;3.50;98.20;;;;;;5017404;28;20226;-68
2021/11/09 02:07:02;;;;;;;0.40;0.40;;;3.40;98.20;;;;;;5017384;28;20281;-69
2021/11/09 02:09:28;;;;;;;0.30;0.30;;;3.20;98.30;;;;;;5017387;28;20645;-67
2021/11/09 02:11:53;;;;;;;0.30;0.30;;;3.10;98.50;;;;;;5017652;28;20186;-68
2021/11/09 02:14:22;;;;;;;0.30;0.30;;;3.20;98.70;;;;;;5017557;28;20433;-68
2021/11/09 02:16:50;;;;;;;0.40;0.40;;;3.20;98.50;;;;;;5017298;28;20233;-68
2021/11/09 02:19:15;;;;;;;0.40;0.40;;;3.20;98.40;;;;;;5017396;28;20206;-69
2021/11/09 02:21:42;;;;;;;0.30;0.30;;;3.40;98.20;;;;;;5017347;28;20641;-69
2021/11/09 02:24:08;;;;;;;0.35;0.35;;;3.40;98.00;;;;;;5017103;28;20632;-69
2021/11/09 02:26:35;;;;;;;0.30;0.30;;;3.40;98.00;;;;;;5015712;28;20208;-67
2021/11/09 02:29:01;;;;;;;0.40;0.40;;;3.40;98.10;;;;;;5017194;28;20533;-69
2021/11/09 02:31:28;;;;;;;0.40;0.40;;;3.30;98.10;;;;;;5017336;28;20171;-68
2021/11/09 02:33:53;;;;;;;0.32;0.32;;;3.40;98.10;;;;;;5017074;28;20529;-69
2021/11/09 02:36:19;;;;;;;0.30;0.30;;;3.40;98.10;;;;;;5016761;28;20202;-68
2021/11/09 02:38:46;;;;;;;0.40;0.40;;;3.30;97.90;;;;;;5016889;28;20189;-68
2021/11/09 02:41:12;;;;;;;0.30;0.30;;;3.20;98.10;;;;;;5017063;28;20178;-69
2021/11/09 02:43:38;;;;;;;0.30;0.30;;;3.30;97.80;;;;;;5016705;28;20201;-68
2021/11/09 02:48:44;;;;;;;0.35;0.35;;;3.30;97.70;;;;;;5016690;28;20182;-67
2021/11/09 02:51:14;;;;;;;0.40;0.40;;;3.40;97.70;;;;;;5016647;28;20186;-67
2021/11/09 02:53:47;;;;;;;0.60;0.60;;;3.20;97.70;;;;;;5016543;28;20190;-68
2021/11/09 03:07:02;;;;;;;0.40;0.40;;;3.40;97.60;;;;;;5014343;28;20237;-68
2021/11/09 03:09:49;;;;;;;0.32;0.32;;;3.40;97.70;;;;;;5015259;28;20184;-67
2021/11/09 03:12:16;;;;;;;0.40;0.40;;;3.40;97.70;;;;;;5016498;28;20174;-67
2021/11/09 03:14:42;;;;;;;0.40;0.40;;;3.40;97.80;;;;;;5016156;28;20195;-67
2021/11/09 03:17:16;;;;;;;0.40;0.40;;;3.30;97.80;;;;;;5016247;28;20174;-67
2021/11/09 03:19:48;;;;;;;0.35;0.35;;;3.30;97.70;;;;;;5016389;28;20178;-67
2021/11/09 03:46:53;;;;;;;0.30;0.30;;;3.30;97.50;;;;;;5015578;28;20206;-68
2021/11/09 03:49:21;;;;;;;0.30;0.30;;;3.40;97.50;;;;;;5015828;28;20660;-68
2021/11/09 03:51:48;;;;;;;0.40;0.40;;;3.30;97.30;;;;;;5015798;28;20176;-68
2021/11/09 03:54:16;;;;;;;0.40;0.40;;;3.30;97.30;;;;;;5015411;28;20194;-68
2021/11/09 03:59:14;;;;;;;0.30;0.30;;;3.50;97.20;;;;;;5015583;28;20298;-67
2021/11/09 04:01:49;;;;;;;0.40;0.40;;;3.50;97.30;;;;;;5015548;28;20170;-67
2021/11/09 04:07:01;;;;;;;0.35;0.35;;;3.10;97.40;;;;;;5015348;28;20750;-67
2021/11/09 04:09:36;;;;;;;0.40;0.40;;;3.20;97.30;;;;;;5015259;28;20181;-67
2021/11/09 04:12:19;;;;;;;0.38;0.38;;;3.20;97.10;;;;;;5015356;28;20655;-67
2021/11/09 04:14:54;;;;;;;0.40;0.40;;;3.20;96.60;;;;;;5014416;28;20656;-67
2021/11/09 04:20:03;;;;;;;0.40;0.40;;;3.10;97.20;;;;;;5015210;28;20257;-67
2021/11/09 04:23:29;;;;;;;0.30;0.30;;;3.20;96.70;;;;;;5013845;28;20221;-67
2021/11/09 04:45:39;;;;;;;0.40;0.40;;;3.50;96.70;;;;;;5014701;28;20229;-67
2021/11/09 05:08:29;;;;;;;0.40;0.40;;;3.30;96.60;;;;;;5014390;28;20185;-67
2021/11/09 05:10:57;;;;;;;0.30;0.30;;;3.30;96.70;;;;;;5014628;28;20190;-67
2021/11/09 05:13:23;;;;;;;0.30;0.30;;;3.30;96.70;;;;;;5012858;28;20199;-67
2021/11/09 05:15:49;;;;;;;0.32;0.32;;;3.20;96.70;;;;;;5013957;28;20191;-67
2021/11/09 05:18:15;;;;;;;0.30;0.30;;;3.20;96.90;;;;;;5014264;28;20205;-67
2021/11/09 05:20:41;;;;;;;0.40;0.40;;;3.10;96.80;;;;;;5013949;28;20189;-67
2021/11/09 05:23:07;;;;;;;0.73;0.73;;;3.00;97.20;;;;;;5013920;28;20672;-67
2021/11/09 05:25:33;;;;;;;0.32;0.32;;;2.90;97.20;;;;;;5013385;28;20445;-67
2021/11/09 05:27:59;;;;;;;0.30;0.30;;;2.90;97.40;;;;;;5014277;28;20181;-67
2021/11/09 05:30:25;;;;;;;0.30;0.30;;;3.00;97.60;;;;;;5014178;28;20882;-67
2021/11/09 05:32:53;;;;;;;0.40;0.40;;;3.00;97.70;;;;;;5013932;28;20317;-67
2021/11/09 05:35:20;;;;;;;0.40;0.40;;;3.10;97.60;;;;;;5013653;28;20175;-67
2021/11/09 05:37:48;;;;;;;0.40;0.40;;;3.20;97.40;;;;;;5014319;28;20511;-67
2021/11/09 05:40:14;;;;;;;0.40;0.40;;;3.20;97.20;;;;;;5013771;28;20178;-67
2021/11/09 05:42:41;;;;;;;0.30;0.30;;;3.10;97.30;;;;;;5013761;28;20176;-67
2021/11/09 05:45:09;;;;;;;0.30;0.30;;;3.10;97.60;;;;;;5013752;28;20170;-67
2021/11/09 05:47:35;;;;;;;0.30;0.30;;;3.00;97.60;;;;;;5013735;28;20659;-67
2021/11/09 05:50:01;;;;;;;0.30;0.30;;;3.10;97.70;;;;;;5013526;28;20186;-66
2021/11/09 05:52:27;;;;;;;0.38;0.38;;;2.90;97.90;;;;;;5013821;28;20221;-67
2021/11/09 05:54:53;;;;;;;1.17;0.90;;;3.00;97.90;;;;;;5013391;28;20245;-67
2021/11/09 05:57:19;;;;;;;0.30;0.30;;;3.20;97.70;;;;;;5013779;28;20178;-66
2021/11/09 05:59:45;;;;;;;0.40;0.40;;;3.20;97.40;;;;;;5013679;28;20185;-67
2021/11/09 06:02:11;;;;;;;0.30;0.30;;;3.20;97.40;;;;;;5013697;28;20200;-67
2021/11/09 06:04:36;;;;;;;0.30;0.30;;;3.10;97.50;;;;;;5013441;28;20190;-67
2021/11/09 06:07:02;;;;;;;0.30;0.30;;;3.10;97.80;;;;;;5013299;28;20263;-67
2021/11/09 06:09:28;;;;;;;0.30;0.30;;;2.90;97.90;;;;;;5013864;28;20174;-67
2021/11/09 06:11:54;;;;;;;0.30;0.30;;;3.00;98.10;;;;;;5013572;28;20174;-67
2021/11/09 06:14:20;;;;;;;0.30;0.30;;;3.10;98.10;;;;;;5013395;28;20194;-67
2021/11/09 06:16:46;;;;;;;0.30;0.30;;;3.10;98.00;;;;;;5013488;28;20409;-67
2021/11/09 06:19:12;;;;;;;0.30;0.30;;;3.10;97.90;;;;;;5013518;28;20183;-67
2021/11/09 06:21:37;;;;;;;0.30;0.30;;;3.10;98.00;;;;;;5012121;28;20247;-67
2021/11/09 06:24:03;;;;;;;0.40;0.40;;;3.20;98.30;;;;;;5013266;28;20437;-67
2021/11/09 06:26:29;;;;;;;0.40;0.40;;;3.20;97.90;;;;;;5013172;28;20281;-67
2021/11/09 06:28:59;;;;;;;0.40;0.40;;;3.20;97.90;;;;;;5013609;28;20172;-67
2021/11/09 06:31:28;;;;;;;0.30;0.30;;;3.20;97.90;;;;;;5013450;28;20166;-67
2021/11/09 06:33:54;;;;;;;0.32;0.32;;;3.20;97.90;;;;;;5013051;28;20692;-67
2021/11/09 06:36:19;;;;;;;0.37;0.37;;;3.30;97.80;;;;;;5013145;28;20185;-67
2021/11/09 06:38:46;;;;;;;0.30;0.30;;;3.30;97.70;;;;;;5015307;28;20179;-67
2021/11/09 06:41:12;;;;;;;0.30;0.30;;;3.30;97.60;;;;;;5015726;28;20175;-67
2021/11/09 06:43:37;;;;;;;0.30;0.30;;;3.50;97.50;;;;;;5016890;28;20567;-67
2021/11/09 06:46:03;;;;;;;2.20;1.37;;;3.40;97.40;;;;;;5016573;28;20214;-67
2021/11/09 06:48:29;;;;;;;0.33;0.33;;;3.50;97.50;;;;;;5017487;28;20768;-67
2021/11/09 06:50:55;;;;;;;0.40;0.40;;;3.40;97.50;;;;;;5016615;28;20210;-67
2021/11/09 06:53:21;;;;;;;1.50;1.47;;;3.50;97.60;;;;;;5016633;28;20632;-67
2021/11/09 06:55:47;;;;;;;0.33;0.33;;;3.50;97.50;;;;;;5016596;28;20406;-67
2021/11/09 06:58:14;;;;;;;0.30;0.30;;;3.60;97.50;;;;;;5016720;28;20409;-67
2021/11/09 07:00:39;;;;;;;0.40;0.40;;;3.60;97.40;;;;;;5016652;28;20174;-67
2021/11/09 07:03:05;;;;;;;0.33;0.33;;;3.60;97.30;;;;;;5016434;28;20195;-67
2021/11/09 07:05:31;;;;;;;0.37;0.37;;;3.60;97.40;;;;;;5016542;28;20309;-67
2021/11/09 07:07:57;;;;;;;0.30;0.30;;;3.50;97.50;;;;;;5016506;28;20183;-67
2021/11/09 07:10:22;;;;;;;0.40;0.40;;;3.50;97.50;;;;;;5016555;28;20183;-67
2021/11/09 07:12:48;;;;;;;0.30;0.30;;;3.50;97.60;;;;;;5015155;28;20172;-67
2021/11/09 07:15:17;;;;;;;0.40;0.40;;;3.40;97.60;;;;;;5016113;28;20183;-67
2021/11/09 07:17:43;;;;;;;0.32;0.32;;;3.40;97.50;;;;;;5016245;28;20452;-67
2021/11/09 07:20:11;;;;;;;0.30;0.30;;;3.50;97.70;;;;;;5016158;28;20176;-67
2021/11/09 07:22:37;;;;;;;0.35;0.35;;;3.70;97.30;;;;;;5016143;28;20594;-67
2021/11/09 07:25:03;;;;;;;0.40;0.40;;;3.90;97.00;;;;;;5015842;28;20249;-68
2021/11/09 07:27:29;;;;;;;0.30;0.30;;;4.00;96.90;;;;;;5016122;28;20195;-67
2021/11/09 07:29:56;;;;;;;0.30;0.30;;;3.90;96.90;;;;;;5016270;28;20725;-67
2021/11/09 07:32:22;;;;;;;0.40;0.40;;;4.10;96.80;;;;;;5015930;28;20167;-67
2021/11/09 07:34:47;;;;;;;0.30;0.30;;;4.70;96.50;;;;;;5015732;28;20196;-67
2021/11/09 07:37:13;;;;;;;0.40;0.40;;;5.50;95.00;;;;;;5015905;28;20406;-67
2021/11/09 07:39:40;;;;;;;0.30;0.30;;;6.20;94.00;;;;;;5016011;28;20409;-67
2021/11/09 07:42:06;;;;;;;0.30;0.30;;;7.20;93.30;;;;;;5015965;28;20403;-68
2021/11/09 07:44:32;;;;;;;0.30;0.30;;;8.40;90.80;;;;;;5015806;28;20202;-68
2021/11/09 07:46:58;;;;;;;0.30;0.30;;;9.60;85.70;;;;;;5015587;28;20211;-68
2021/11/09 07:49:24;;;;;;;0.40;0.40;;;10.50;79.60;;;;;;5015241;28;20195;-68
2021/11/09 07:51:50;;;;;;;0.60;0.60;;;11.20;76.50;;;;;;5015622;28;20762;-68
2021/11/09 07:54:19;;;;;;;0.30;0.30;;;11.80;72.70;;;;;;5015575;28;20570;-68
2021/11/09 07:56:44;;;;;;;0.30;0.30;;;12.10;70.40;;;;;;5015535;28;20175;-67
2021/11/09 07:59:31;;;;;;;0.50;0.50;;;12.00;70.40;;;;;;5015334;28;20182;-68
2021/11/09 08:02:11;;;;;;;0.30;0.30;;;12.20;69.70;;;;;;5015629;28;20641;-68
2021/11/09 08:05:18;;;;;;;0.40;0.40;;;12.30;68.40;;;;;;5015414;28;20572;-67
2021/11/09 08:07:29;;;;;;;0.60;0.60;;;12.60;65.90;;;;;;5017202;28;20207;-67
2021/11/09 08:09:55;;;;;;;0.30;0.30;;;12.80;66.50;;;;;;5015121;28;20171;-68
2021/11/09 08:12:21;;;;;;;0.30;0.30;;;13.30;64.50;;;;;;5015420;28;20395;-68
2021/11/09 08:14:46;;;;;;;0.30;0.30;;;14.00;62.50;;;;;;5015063;28;20179;-68
2021/11/09 08:17:14;;;;;;;0.30;0.30;;;14.20;59.40;;;;;;5015146;28;20580;-68
2021/11/09 08:19:40;;;;;;;0.53;0.53;;;14.00;59.40;;;;;;5013929;28;20701;-68
2021/11/09 08:22:06;;;;;;;0.30;0.30;;;13.20;60.20;;;;;;5015148;28;20417;-67
2021/11/09 08:24:32;;;;;;;0.30;0.30;;;12.70;61.60;;;;;;5014848;28;20434;-68
2021/11/09 08:27:03;;;;;;;1.57;0.70;;;13.10;62.10;;;;;;5014782;28;20986;-68
2021/11/09 08:29:29;;;;;;;0.30;0.30;;;13.10;60.70;;;;;;5015260;28;20167;-67
2021/11/09 08:31:56;;;;;;;0.30;0.30;;;12.60;63.40;;;;;;5014954;28;20403;-68
2021/11/09 08:34:23;;;;;;;0.30;0.30;;;12.90;63.40;;;;;;5014624;28;20279;-68
2021/11/09 08:36:49;;;;;;;0.30;0.30;;;13.20;60.70;;;;;;5014418;28;21030;-68
2021/11/09 08:39:22;;;;;;;0.30;0.30;;;13.60;59.50;;;;;;5014880;28;20411;-68
2021/11/09 08:42:09;;;;;;;0.30;0.30;;;13.90;57.90;;;;;;5014895;28;20407;-68
2021/11/09 08:44:42;;;;;;;0.30;0.30;;;14.60;56.50;;;;;;5014540;28;20491;-68
2021/11/09 08:47:08;;;;;;;0.30;0.30;;;15.80;54.50;;;;;;5014317;28;20534;-68
2021/11/09 08:49:34;;;;;;;0.30;0.30;;;17.00;52.60;;;;;;5014417;28;20563;-67
2021/11/09 08:52:02;;;;;;;0.30;0.30;;;17.80;50.70;;;;;;5014565;28;20400;-68
2021/11/09 08:54:33;;;;;;;0.30;0.30;;;18.20;48.50;;;;;;5014443;28;20728;-67
2021/11/09 08:57:18;;;;;;;0.40;0.40;;;18.10;47.50;;;;;;5014493;28;20488;-68
2021/11/09 09:05:00;;;;;;;0.30;0.30;;;18.80;45.80;;;;;;5014107;28;20425;-68
2021/11/09 09:07:29;;;;;;;0.30;0.30;;;18.70;44.30;;;;;;5014302;28;20456;-68
2021/11/09 09:09:56;;;;;;;0.30;0.30;;;19.40;43.40;;;;;;5014226;28;20456;-68
2021/11/09 09:12:28;;;;;;;0.30;0.30;;;19.80;42.90;;;;;;5014152;28;20402;-68
2021/11/09 09:14:55;;;;;;;0.30;0.30;;;19.90;42.00;;;;;;5013891;28;20492;-68
2021/11/09 09:17:22;;;;;;;0.40;0.40;;;19.40;41.80;;;;;;5014177;28;20764;-67
2021/11/09 09:20:00;;;;;;;0.30;0.30;;;18.70;43.30;;;;;;5014021;28;20407;-67
2021/11/09 09:28:10;;;;;;;0.30;0.30;;;19.60;40.60;;;;;;5014117;28;21048;-67
2021/11/09 09:57:27;;;;;;;0.30;0.30;;;18.90;40.90;;;;;;5013619;28;20177;-68
2021/11/09 09:59:55;;;;;;;0.30;0.30;;;19.10;41.70;;;;;;5012296;28;20945;-67
2021/11/09 10:02:30;;;;;;;0.40;0.40;;;19.40;40.70;;;;;;5013565;28;20405;-68
2021/11/09 10:05:03;;;;;;;0.57;0.57;;;19.60;40.80;;;;;;5013264;28;20457;-68
2021/11/09 10:07:37;;;;;;;0.30;0.30;;;19.00;41.20;;;;;;5013662;28;20504;-68
2021/11/09 10:10:27;;;;;;;0.30;0.30;;;19.50;40.60;;;;;;5013922;28;20401;-68
2021/11/09 10:13:13;;;;;;;0.30;0.30;;;19.80;37.60;;;;;;5014168;28;20396;-68
2021/11/09 10:15:48;;;;;;;0.30;0.30;;;19.30;37.00;;;;;;5017249;28;20383;-68
2021/11/09 10:18:17;;;;;;;0.30;0.30;;;17.20;39.00;;;;;;5017573;28;20443;-68
2021/11/09 10:20:46;;;;;;;0.30;0.30;;;16.40;41.20;;;;;;5017242;28;20779;-68
2021/11/09 10:23:21;;;;;;;0.30;0.30;;;16.60;43.10;;;;;;5017157;28;20445;-68
2021/11/09 10:25:48;;;;;;;0.30;0.30;;;17.00;42.40;;;;;;5017338;28;20397;-68
2021/11/09 10:28:18;;;;;;;0.30;0.30;;;17.00;41.30;;;;;;5017347;28;20409;-68
2021/11/09 10:30:53;;;;;;;0.40;0.40;;;17.10;41.80;;;;;;5017134;28;20408;-67
2021/11/09 10:33:23;;;;;;;0.50;0.50;;;17.10;43.00;;;;;;5017159;28;20421;-68
2021/11/09 10:35:49;;;;;;;0.40;0.40;;;17.20;42.20;;;;;;5016855;28;20756;-68
2021/11/09 10:38:14;;;;;;;0.30;0.30;;;17.00;41.60;;;;;;5017157;28;20396;-67
2021/11/09 10:40:45;;;;;;;0.30;0.30;;;15.00;43.70;;;;;;5017108;28;20425;-68
2021/11/09 10:43:13;;;;;;;0.30;0.30;;;13.90;45.30;;;;;;5016928;28;20214;-68
2021/11/09 10:45:40;;;;;;;0.30;0.30;;;13.50;45.60;;;;;;5016633;28;20446;-68
2021/11/09 10:48:15;;;;;;;0.30;0.30;;;12.60;46.10;;;;;;5016946;28;20411;-67
2021/11/09 10:50:43;;;;;;;0.30;0.30;;;11.90;48.10;;;;;;5016773;28;20540;-68
2021/11/09 10:53:17;;;;;;;0.30;0.30;;;11.60;49.90;;;;;;5031868;28;20844;-68
2021/11/09 10:59:23;;;;;;;0.50;0.50;;;11.60;52.80;;;;;;5026349;28;20230;-67
2021/11/09 11:04:43;;;;;;;0.30;0.30;;;10.70;53.30;;;;;;5016642;28;20225;-68
2021/11/09 11:07:11;;;;;;;0.30;0.30;;;10.60;55.30;;;;;;5016242;28;20286;-67
2021/11/09 11:09:56;;;;;;;0.30;0.30;;;10.90;54.30;;;;;;5016279;28;20398;-67
2021/11/09 11:12:26;;;;;;;0.30;0.30;;;11.30;54.20;;;;;;5016467;28;20174;-68
2021/11/09 11:14:51;;;;;;;0.30;0.30;;;11.40;56.40;;;;;;5016008;28;20234;-68
2021/11/09 11:17:19;;;;;;;0.30;0.30;;;11.40;53.10;;;;;;5016140;28;20175;-67
2021/11/09 11:19:52;;;;;;;0.30;0.30;;;11.60;53.90;;;;;;5016170;28;20406;-68
2021/11/09 11:22:25;;;;;;;0.50;0.50;;;11.40;52.30;;;;;;5016381;28;20520;-67
2021/11/09 11:24:52;;;;;;;0.40;0.40;;;10.90;53.50;;;;;;5015610;28;20281;-67
2021/11/09 11:27:18;;;;;;;0.30;0.30;;;10.70;54.20;;;;;;5016382;28;20199;-67
2021/11/09 11:29:44;;;;;;;0.30;0.30;;;10.60;55.70;;;;;;5015940;28;20203;-68
2021/11/09 11:32:16;;;;;;;0.30;0.30;;;10.80;55.50;;;;;;5016124;28;20629;-68
2021/11/09 11:34:41;;;;;;;0.30;0.30;;;11.00;55.10;;;;;;5015987;28;20191;-68
2021/11/09 11:37:09;;;;;;;0.30;0.30;;;11.10;55.10;;;;;;5015816;28;20184;-68
2021/11/09 11:39:36;;;;;;;0.30;0.30;;;11.40;55.50;;;;;;5015904;28;20266;-68
2021/11/09 11:42:08;;;;;;;1.88;0.60;;;11.50;53.10;;;;;;5015944;28;20587;-68
2021/11/09 11:44:38;;;;;;;0.30;0.30;;;11.10;54.70;;;;;;5015744;28;20203;-68
2021/11/09 11:47:16;;;;;;;0.30;0.30;;;11.00;54.70;;;;;;5015839;28;20878;-68
2021/11/09 11:49:42;;;;;;;0.30;0.30;;;11.10;55.70;;;;;;5014268;28;20658;-68
2021/11/09 11:52:27;;;;;;;0.30;0.30;;;11.10;54.20;;;;;;5015679;28;20422;-68
2021/11/09 11:55:04;;;;;;;0.30;0.30;;;11.10;53.90;;;;;;5015316;28;20265;-67
2021/11/09 11:57:42;;;;;;;1.15;1.15;;;11.10;55.30;;;;;;5015853;28;20542;-68
2021/11/09 12:00:51;;;;;;;0.30;0.30;;;11.10;54.20;;;;;;5015494;28;20598;-68
2021/11/09 12:03:23;;;;;;;0.30;0.30;;;10.90;53.40;;;;;;5015492;28;20704;-68
2021/11/09 12:05:50;;;;;;;0.30;0.30;;;10.80;53.60;;;;;;5015231;28;20192;-67
2021/11/09 12:08:42;;;;;;;0.30;0.30;;;10.90;55.80;;;;;;5015311;28;20203;-68
2021/11/09 12:11:35;;;;;;;0.30;0.30;;;10.80;55.40;;;;;;5015393;28;20160;-68
2021/11/09 12:14:07;;;;;;;0.30;0.30;;;10.90;54.70;;;;;;5013747;28;20203;-68
2021/11/09 12:16:53;;;;;;;0.30;0.30;;;10.70;55.50;;;;;;5013615;28;20179;-68
2021/11/09 12:19:39;;;;;;;0.30;0.30;;;10.60;54.70;;;;;;5015010;28;20582;-67
2021/11/09 12:22:08;;;;;;;0.30;0.30;;;10.50;58.90;;;;;;5015189;28;20167;-67
2021/11/09 12:25:00;;;;;;;0.30;0.30;;;10.40;59.00;;;;;;5014863;28;20202;-68
2021/11/09 12:27:47;;;;;;;0.30;0.30;;;10.20;56.60;;;;;;5014959;28;20195;-68
2021/11/09 12:30:35;;;;;;;0.30;0.30;;;9.90;53.80;;;;;;5015211;28;20167;-67
2021/11/09 12:33:16;;;;;;;0.30;0.30;;;9.60;51.20;;;;;;5014791;28;20163;-67
2021/11/09 12:36:02;;;;;;;0.30;0.30;;;9.60;54.10;;;;;;5013915;28;20163;-68
2021/11/09 12:38:45;;;;;;;0.30;0.30;;;9.70;54.90;;;;;;5014850;28;20168;-67
2021/11/09 12:41:29;;;;;;;0.30;0.30;;;9.40;54.50;;;;;;5013497;28;20313;-68
2021/11/09 12:43:56;;;;;;;0.30;0.30;;;9.40;55.30;;;;;;5014556;28;20183;-68
2021/11/09 12:46:41;;;;;;;0.30;0.30;;;9.50;56.80;;;;;;5014333;28;20684;-67
2021/11/09 12:49:16;;;;;;;0.30;0.30;;;9.40;54.60;;;;;;5014378;28;20187;-68
2021/11/09 12:51:47;;;;;;;0.30;0.30;;;9.30;52.90;;;;;;5014791;28;20175;-68
2021/11/09 12:54:15;;;;;;;0.30;0.30;;;9.40;52.00;;;;;;5014465;28;20195;-68
2021/11/09 12:56:51;;;;;;;0.30;0.30;;;9.60;56.70;;;;;;5014384;28;20652;-68
2021/11/09 12:59:27;;;;;;;0.30;0.30;;;9.50;53.20;;;;;;5014541;28;20182;-68
2021/11/09 13:02:02;;;;;;;0.40;0.40;;;9.20;53.30;;;;;;5014524;28;20587;-67
2021/11/09 13:04:33;;;;;;;0.30;0.30;;;8.90;52.10;;;;;;5014289;28;20194;-67
2021/11/09 13:09:52;;;;;;;0.30;0.30;;;9.20;54.40;;;;;;5014337;28;20723;-67
2021/11/09 13:12:24;;;;;;;0.30;0.30;;;9.30;53.20;;;;;;5014382;28;20282;-67
2021/11/09 13:14:51;;;;;;;1.63;1.52;;;9.40;53.20;;;;;;5013922;28;20215;-67
2021/11/09 13:17:32;;;;;;;0.30;0.30;;;9.40;52.70;;;;;;5014220;28;20171;-66
2021/11/09 13:20:01;;;;;;;0.30;0.30;;;9.60;57.70;;;;;;5014161;28;20540;-67
2021/11/09 13:22:30;;;;;;;0.30;0.30;;;9.40;56.60;;;;;;5014183;28;20195;-67
2021/11/09 13:25:00;;;;;;;0.30;0.30;;;9.10;55.40;;;;;;5013705;28;20665;-67
2021/11/09 13:27:55;;;;;;;0.30;0.30;;;9.10;53.70;;;;;;5013899;28;20203;-67
2021/11/09 13:30:25;;;;;;;0.30;0.30;;;9.30;56.20;;;;;;5017375;28;20171;-67
2021/11/09 13:32:53;;;;;;;0.30;0.30;;;9.10;56.80;;;;;;5013678;28;20242;-67
2021/11/09 13:35:28;;;;;;;0.30;0.30;;;9.20;57.00;;;;;;5013761;28;20711;-67
2021/11/09 13:38:26;;;;;;;0.32;0.32;;;9.20;56.40;;;;;;5014097;28;20217;-67
2021/11/09 13:40:58;;;;;;;0.30;0.30;;;9.10;53.30;;;;;;5013625;28;20271;-67
2021/11/09 13:43:29;;;;;;;0.30;0.30;;;9.10;53.10;;;;;;5013588;28;20274;-67
2021/11/09 13:46:01;;;;;;;0.30;0.30;;;9.20;54.60;;;;;;5013562;28;20230;-67
2021/11/09 13:48:27;;;;;;;0.30;0.30;;;9.10;54.40;;;;;;5013723;28;20172;-67
2021/11/09 13:50:58;;;;;;;0.30;0.30;;;9.20;55.00;;;;;;5013660;28;20270;-67
2021/11/09 13:53:30;;;;;;;0.30;0.30;;;9.10;56.60;;;;;;5013711;28;20184;-67
2021/11/09 13:55:56;;;;;;;0.30;0.30;;;9.20;56.60;;;;;;5013438;28;20175;-67
2021/11/09 13:58:22;;;;;;;0.30;0.30;;;9.20;55.00;;;;;;5013622;28;20199;-68
2021/11/09 14:00:52;;;;;;;0.30;0.30;;;9.10;55.00;;;;;;5013734;28;20207;-67
2021/11/09 14:09:06;;;;;;;0.30;0.30;;;9.30;54.50;;;;;;5013764;28;20206;-67
2021/11/09 14:16:56;;;;;;;0.30;0.30;;;9.10;56.00;;;;;;5013316;28;20175;-67
2021/11/09 14:19:32;;;;;;;0.30;0.30;;;9.10;56.20;;;;;;5013351;28;20245;-67
2021/11/09 14:22:07;;;;;;;0.30;0.30;;;9.00;56.40;;;;;;5013616;28;20180;-67
2021/11/09 14:24:33;;;;;;;0.30;0.30;;;9.00;56.80;;;;;;5013149;28;20550;-68
2021/11/09 14:27:07;;;;;;;0.30;0.30;;;9.10;57.70;;;;;;5013171;28;20217;-67
2021/11/09 14:29:37;;;;;;;0.30;0.30;;;9.10;57.90;;;;;;5013612;28;20160;-67
2021/11/09 14:32:02;;;;;;;0.30;0.30;;;8.90;58.90;;;;;;5013534;28;20545;-67
2021/11/09 14:34:29;;;;;;;0.30;0.30;;;9.00;58.00;;;;;;5013206;28;20186;-67
2021/11/09 14:37:19;;;;;;;0.30;0.30;;;8.80;59.70;;;;;;5013336;28;20531;-68
2021/11/09 14:39:57;;;;;;;0.30;0.30;;;8.80;59.30;;;;;;5013491;28;20292;-67
2021/11/09 14:42:38;;;;;;;0.35;0.35;;;8.80;59.00;;;;;;5013293;28;20577;-67
2021/11/09 14:47:57;;;;;;;0.30;0.30;;;8.30;63.20;;;;;;5013276;28;20248;-67
2021/11/09 14:50:42;;;;;;;0.30;0.30;;;8.00;60.40;;;;;;5013097;28;20191;-67
2021/11/09 14:53:27;;;;;;;0.30;0.30;;;8.10;59.50;;;;;;5013302;28;20186;-67
2021/11/09 14:55:54;;;;;;;0.30;0.30;;;8.30;59.40;;;;;;5012894;28;20166;-67
2021/11/09 14:58:45;;;;;;;0.40;0.40;;;8.50;60.10;;;;;;5011783;28;20654;-67
2021/11/09 15:01:38;;;;;;;0.30;0.30;;;8.50;60.70;;;;;;5016689;28;20183;-67
2021/11/09 15:04:10;;;;;;;0.30;0.30;;;8.30;60.10;;;;;;5016712;28;20186;-67
2021/11/09 15:06:49;;;;;;;0.30;0.30;;;8.20;60.30;;;;;;5016368;28;20237;-67
2021/11/09 15:30:50;;;;;;;0.30;0.30;;;8.00;64.20;;;;;;5033873;28;20635;-67
2021/11/09 15:33:29;;;;;;;0.30;0.30;;;7.80;66.40;;;;;;5033868;28;20194;-67
2021/11/09 15:38:33;;;;;;;0.40;0.40;;;7.70;64.90;;;;;;5016188;28;20292;-67
2021/11/09 15:40:59;;;;;;;0.40;0.40;;;7.80;65.10;;;;;;5015931;28;20203;-67
2021/11/09 15:43:25;;;;;;;0.40;0.40;;;7.90;64.80;;;;;;5015949;28;20220;-67
2021/11/09 15:45:54;;;;;;;0.30;0.30;;;8.00;65.50;;;;;;5015473;28;20258;-68
2021/11/09 15:48:19;;;;;;;0.30;0.30;;;8.00;66.10;;;;;;5015932;28;20178;-67
2021/11/09 15:50:45;;;;;;;0.30;0.30;;;8.00;67.20;;;;;;5015680;28;20193;-67
2021/11/09 15:53:11;;;;;;;0.50;0.50;;;8.00;67.00;;;;;;5015601;28;20185;-67
2021/11/09 15:55:37;;;;;;;0.40;0.40;;;7.50;69.30;;;;;;5015313;28;20590;-67
2021/11/09 15:58:03;;;;;;;0.30;0.30;;;7.50;70.00;;;;;;5015735;28;20165;-67
2021/11/09 16:00:29;;;;;;;0.40;0.40;;;7.40;70.60;;;;;;5015621;28;20256;-67